createdAt,value
2023-01-26T00:00:54.794Z,0.60
2023-01-26T00:03:25.720Z,0.70
2023-01-26T00:05:55.090Z,0.60
2023-01-26T00:08:24.412Z,0.70
2023-01-26T00:10:55.161Z,0.70
2023-01-26T00:13:24.607Z,0.60
2023-01-26T00:15:55.544Z,0.50
2023-01-26T00:18:24.906Z,0.40
2023-01-26T00:20:58.692Z,0.50
2023-01-26T00:23:29.382Z,0.60
2023-01-26T00:25:58.810Z,0.60
2023-01-26T00:28:29.026Z,0.50
2023-01-26T00:31:06.894Z,0.50
2023-01-26T00:33:36.238Z,0.40
2023-01-26T00:36:05.525Z,0.40
2023-01-26T00:38:34.614Z,0.30
2023-01-26T00:41:03.986Z,0.40
2023-01-26T00:43:33.265Z,0.40
2023-01-26T00:46:02.384Z,0.40
2023-01-26T00:48:32.833Z,0.40
2023-01-26T00:51:01.950Z,0.30
2023-01-26T00:53:31.094Z,0.20
2023-01-26T00:56:00.199Z,0.20
2023-01-26T00:58:29.305Z,0.30
2023-01-26T01:00:58.454Z,0.20
2023-01-26T01:03:27.529Z,0.30
2023-01-26T01:05:58.050Z,0.30
2023-01-26T01:08:27.088Z,0.40
2023-01-26T01:11:05.925Z,0.40
2023-01-26T01:13:35.062Z,0.40
2023-01-26T01:16:08.590Z,0.40
2023-01-26T01:18:38.443Z,0.50
2023-01-26T01:21:15.261Z,0.60
2023-01-26T01:23:45.232Z,0.60
2023-01-26T01:26:15.159Z,0.60
2023-01-26T01:28:45.140Z,0.70
2023-01-26T01:31:16.073Z,0.70
2023-01-26T01:33:45.399Z,0.70
2023-01-26T01:36:18.073Z,0.80
2023-01-26T01:38:49.678Z,0.80
2023-01-26T01:41:21.208Z,0.80
2023-01-26T01:43:50.415Z,0.80
2023-01-26T01:46:28.382Z,0.80
2023-01-26T01:49:02.688Z,0.80
2023-01-26T01:51:39.024Z,0.80
2023-01-26T01:54:12.475Z,0.80
2023-01-26T01:56:46.685Z,0.80
2023-01-26T01:59:16.309Z,0.80
2023-01-26T02:01:45.418Z,0.80
2023-01-26T02:04:15.404Z,0.80
2023-01-26T02:06:50.199Z,0.80
2023-01-26T02:09:39.572Z,0.70
2023-01-26T02:12:07.162Z,0.60
2023-01-26T02:14:36.804Z,0.70
2023-01-26T02:22:13.547Z,0.50
2023-01-26T02:24:43.156Z,0.50
2023-01-26T02:27:13.798Z,0.50
2023-01-26T02:32:24.271Z,0.60
2023-01-26T02:34:58.492Z,0.60
2023-01-26T02:37:27.709Z,0.60
2023-01-26T02:40:01.278Z,0.60
2023-01-26T02:42:44.744Z,0.60
2023-01-26T02:45:17.041Z,0.60
2023-01-26T02:47:47.529Z,0.60
2023-01-26T02:50:15.926Z,0.60
2023-01-26T02:52:45.109Z,0.70
2023-01-26T02:55:29.936Z,0.70
2023-01-26T02:58:00.863Z,0.60
2023-01-26T03:00:32.283Z,0.70
2023-01-26T03:03:05.290Z,0.70
2023-01-26T03:05:34.169Z,0.70
2023-01-26T03:08:06.358Z,0.70
2023-01-26T03:10:36.313Z,0.70
2023-01-26T03:13:05.289Z,0.80
2023-01-26T03:15:48.287Z,0.80
2023-01-26T03:18:37.845Z,0.80
2023-01-26T03:21:26.217Z,0.70
2023-01-26T03:24:12.590Z,0.70
2023-01-26T03:26:59.569Z,0.80
2023-01-26T03:29:29.229Z,0.70
2023-01-26T03:31:59.590Z,0.80
2023-01-26T03:34:31.116Z,0.80
2023-01-26T03:37:00.096Z,0.80
2023-01-26T03:39:46.304Z,0.80
2023-01-26T03:42:32.771Z,0.90
2023-01-26T03:45:18.868Z,0.90
2023-01-26T03:48:05.033Z,0.80
2023-01-26T03:50:52.680Z,0.70
2023-01-26T03:53:40.584Z,0.80
2023-01-26T03:56:22.011Z,0.80
2023-01-26T03:58:53.270Z,0.70
2023-01-26T04:01:27.927Z,0.80
2023-01-26T04:04:15.750Z,0.80
2023-01-26T04:07:05.415Z,0.80
2023-01-26T04:09:34.788Z,0.80
2023-01-26T04:12:03.943Z,0.80
2023-01-26T04:14:50.868Z,0.80
2023-01-26T04:17:37.747Z,0.80
2023-01-26T04:20:25.184Z,0.80
2023-01-26T04:22:55.609Z,0.80
2023-01-26T04:25:25.008Z,0.70
2023-01-26T04:27:53.919Z,0.70
2023-01-26T04:30:23.474Z,0.80
2023-01-26T04:32:53.649Z,0.70
2023-01-26T04:35:22.667Z,0.80
2023-01-26T04:37:51.569Z,0.80
2023-01-26T04:40:22.370Z,0.80
2023-01-26T04:42:51.286Z,0.90
2023-01-26T04:45:20.281Z,0.90
2023-01-26T04:47:49.223Z,1.00
2023-01-26T04:50:18.614Z,1.00
2023-01-26T04:52:47.540Z,1.00
2023-01-26T04:55:16.659Z,1.00
2023-01-26T04:57:47.121Z,1.00
2023-01-26T05:00:16.669Z,1.00
2023-01-26T05:02:45.599Z,1.10
2023-01-26T05:05:14.619Z,1.10
2023-01-26T05:07:43.832Z,1.10
2023-01-26T05:10:15.694Z,1.10
2023-01-26T05:12:46.433Z,1.20
2023-01-26T05:15:15.363Z,1.10
2023-01-26T05:17:47.129Z,1.20
2023-01-26T05:20:16.117Z,1.10
2023-01-26T05:22:45.188Z,1.10
2023-01-26T05:25:14.098Z,1.10
2023-01-26T05:27:43.071Z,1.00
2023-01-26T05:30:15.892Z,1.10
2023-01-26T05:32:45.420Z,1.10
2023-01-26T05:35:14.435Z,1.10
2023-01-26T05:37:43.819Z,1.10
2023-01-26T05:40:14.256Z,1.20
2023-01-26T05:42:44.878Z,1.10
2023-01-26T05:45:15.370Z,1.10
2023-01-26T05:47:45.755Z,1.10
2023-01-26T05:50:15.236Z,1.10
2023-01-26T05:52:46.767Z,1.10
2023-01-26T05:55:15.891Z,1.10
2023-01-26T05:57:44.851Z,1.10
2023-01-26T06:00:16.394Z,1.10
2023-01-26T06:02:47.538Z,1.00
2023-01-26T06:05:17.578Z,1.10
2023-01-26T06:07:46.643Z,1.10
2023-01-26T06:10:15.664Z,1.00
2023-01-26T06:12:44.661Z,1.10
2023-01-26T06:15:15.260Z,1.10
2023-01-26T06:17:44.428Z,1.10
2023-01-26T06:20:15.045Z,1.10
2023-01-26T06:22:43.991Z,1.10
2023-01-26T06:25:12.924Z,1.20
2023-01-26T06:27:42.724Z,1.10
2023-01-26T06:30:13.258Z,1.20
2023-01-26T06:32:43.847Z,1.20
2023-01-26T06:35:12.798Z,1.20
2023-01-26T06:37:41.758Z,1.20
2023-01-26T06:40:12.574Z,1.20
2023-01-26T06:42:41.845Z,1.20
2023-01-26T06:45:12.011Z,1.30
2023-01-26T06:47:45.807Z,1.20
2023-01-26T06:50:17.317Z,1.20
2023-01-26T06:52:49.059Z,1.20
2023-01-26T06:55:22.156Z,1.30
2023-01-26T06:57:51.157Z,1.30
2023-01-26T07:00:21.078Z,1.30
2023-01-26T07:02:50.086Z,1.40
2023-01-26T07:05:20.678Z,1.30
2023-01-26T07:07:49.708Z,1.40
2023-01-26T07:10:18.830Z,1.40
2023-01-26T07:12:48.176Z,1.50
2023-01-26T07:15:17.465Z,1.50
2023-01-26T07:17:46.431Z,1.40
2023-01-26T07:20:15.899Z,1.40
2023-01-26T07:22:46.358Z,1.50
2023-01-26T07:25:15.545Z,1.50
2023-01-26T07:27:44.702Z,1.40
2023-01-26T07:30:15.821Z,1.50
2023-01-26T07:32:45.446Z,1.50
2023-01-26T07:35:14.484Z,1.60
2023-01-26T07:37:43.459Z,1.60
2023-01-26T07:40:14.950Z,1.70
2023-01-26T07:42:43.835Z,1.70
2023-01-26T07:45:13.654Z,1.80
2023-01-26T07:47:42.608Z,1.80
2023-01-26T07:50:14.204Z,1.70
2023-01-26T07:52:43.962Z,1.60
2023-01-26T07:55:14.761Z,1.70
2023-01-26T07:57:43.892Z,1.60
2023-01-26T08:00:14.212Z,1.70
2023-01-26T08:02:43.165Z,1.70
2023-01-26T08:05:12.310Z,1.70
2023-01-26T08:07:41.405Z,1.70
2023-01-26T08:10:12.971Z,1.80
2023-01-26T08:12:43.569Z,1.80
2023-01-26T08:15:13.491Z,1.80
2023-01-26T08:17:47.544Z,1.90
2023-01-26T08:20:16.779Z,1.90
2023-01-26T08:22:45.819Z,2.00
2023-01-26T08:25:14.808Z,1.90
2023-01-26T08:27:45.214Z,1.90
2023-01-26T08:30:15.381Z,1.80
2023-01-26T08:32:44.627Z,1.80
2023-01-26T08:35:13.619Z,1.70
2023-01-26T08:37:42.635Z,1.80
2023-01-26T08:40:12.923Z,1.80
2023-01-26T08:42:42.099Z,1.70
2023-01-26T08:45:13.341Z,1.80
2023-01-26T08:47:42.335Z,1.80
2023-01-26T08:50:12.629Z,1.90
2023-01-26T08:52:41.863Z,1.80
2023-01-26T08:55:11.653Z,1.80
2023-01-26T08:57:40.703Z,1.70
2023-01-26T09:00:13.138Z,1.80
2023-01-26T09:02:42.595Z,1.80
2023-01-26T09:05:12.175Z,1.80
2023-01-26T09:07:41.252Z,1.90
2023-01-26T09:10:11.938Z,1.90
2023-01-26T09:12:41.321Z,1.90
2023-01-26T09:15:12.728Z,1.90
2023-01-26T09:17:42.902Z,2.00
2023-01-26T09:20:13.341Z,1.90
2023-01-26T09:22:43.005Z,2.00
2023-01-26T09:25:12.284Z,2.10
2023-01-26T09:27:41.780Z,2.10
2023-01-26T09:30:13.534Z,2.00
2023-01-26T09:32:42.595Z,2.10
2023-01-26T09:35:14.500Z,2.10
2023-01-26T09:37:45.709Z,2.20
2023-01-26T09:40:20.567Z,2.30
2023-01-26T09:43:06.859Z,2.30
2023-01-26T09:45:48.127Z,2.40
2023-01-26T09:48:27.564Z,2.50
2023-01-26T09:51:03.817Z,2.40
2023-01-26T09:53:43.214Z,2.30
2023-01-26T09:56:17.168Z,2.40
2023-01-26T09:58:49.819Z,2.40
2023-01-26T10:01:26.133Z,2.50
2023-01-26T10:04:03.912Z,2.60
2023-01-26T10:06:34.198Z,2.60
2023-01-26T10:09:08.689Z,2.60
2023-01-26T10:11:42.590Z,2.60
2023-01-26T10:14:17.319Z,2.60
2023-01-26T10:16:50.385Z,2.60
2023-01-26T10:19:27.155Z,2.60
2023-01-26T10:21:59.099Z,2.70
2023-01-26T10:24:28.716Z,2.80
2023-01-26T10:26:59.823Z,2.70
2023-01-26T10:29:28.829Z,2.70
2023-01-26T10:31:59.289Z,2.60
2023-01-26T10:34:29.719Z,2.70
2023-01-26T10:37:13.673Z,2.70
2023-01-26T10:40:00.238Z,2.50
2023-01-26T10:42:31.621Z,2.60
2023-01-26T10:45:03.181Z,2.50
2023-01-26T10:47:33.666Z,2.50
2023-01-26T10:50:23.631Z,2.50
2023-01-26T10:53:01.042Z,2.60
2023-01-26T10:55:30.935Z,2.60
2023-01-26T10:58:00.152Z,2.60
2023-01-26T11:00:31.074Z,2.60
2023-01-26T11:03:08.136Z,2.60
2023-01-26T11:05:37.204Z,2.60
2023-01-26T11:08:27.685Z,2.60
2023-01-26T11:10:57.649Z,2.60
2023-01-26T11:13:26.597Z,2.60
2023-01-26T11:16:05.467Z,2.60
2023-01-26T11:18:45.702Z,2.60
2023-01-26T11:21:19.146Z,2.60
2023-01-26T11:23:54.653Z,2.60
2023-01-26T11:26:42.693Z,2.60
2023-01-26T11:29:37.995Z,2.60
2023-01-26T11:32:16.799Z,2.50
2023-01-26T11:34:57.187Z,2.50
2023-01-26T11:37:49.238Z,2.40
2023-01-26T11:40:27.904Z,2.40
2023-01-26T11:43:19.835Z,2.40
2023-01-26T11:46:05.737Z,2.30
2023-01-26T11:48:46.754Z,2.40
2023-01-26T11:51:27.305Z,2.40
2023-01-26T11:54:34.693Z,2.40
2023-01-26T11:57:09.583Z,2.30
2023-01-26T11:59:43.265Z,2.40
2023-01-26T12:02:27.800Z,2.40
2023-01-26T12:04:59.134Z,2.40
2023-01-26T12:07:35.036Z,2.40
2023-01-26T12:10:06.939Z,2.30
2023-01-26T12:12:40.268Z,2.40
2023-01-26T12:15:15.022Z,2.20
2023-01-26T12:17:51.963Z,2.40
2023-01-26T12:20:29.103Z,2.50
2023-01-26T12:23:05.126Z,2.50
2023-01-26T12:25:37.034Z,2.60
2023-01-26T12:28:21.489Z,2.50
2023-01-26T12:30:59.289Z,2.50
2023-01-26T12:33:28.433Z,2.50
2023-01-26T12:36:07.778Z,2.60
2023-01-26T12:38:46.675Z,2.60
2023-01-26T12:41:22.877Z,2.50
2023-01-26T12:44:00.666Z,2.60
2023-01-26T12:46:30.575Z,2.60
2023-01-26T12:49:04.209Z,2.70
2023-01-26T12:51:38.347Z,2.70
2023-01-26T12:54:16.148Z,2.60
2023-01-26T12:56:49.223Z,2.70
2023-01-26T12:59:46.515Z,2.70
2023-01-26T13:02:27.684Z,2.70
2023-01-26T13:04:58.471Z,2.70
2023-01-26T13:07:33.844Z,2.70
2023-01-26T13:10:24.696Z,2.70
2023-01-26T13:12:55.654Z,2.80
2023-01-26T13:15:26.860Z,2.80
2023-01-26T13:18:02.369Z,2.70
2023-01-26T13:20:47.773Z,2.80
2023-01-26T13:23:39.880Z,2.70
2023-01-26T13:26:43.241Z,2.60
2023-01-26T13:29:33.764Z,2.60
2023-01-26T13:32:19.129Z,2.50
2023-01-26T13:34:54.033Z,2.50
2023-01-26T13:37:29.778Z,2.50
2023-01-26T13:40:04.246Z,2.70
2023-01-26T13:42:39.937Z,2.50
2023-01-26T13:45:18.192Z,2.60
2023-01-26T13:47:50.391Z,2.50
2023-01-26T13:50:31.882Z,2.40
2023-01-26T13:53:01.343Z,2.50
2023-01-26T13:55:33.276Z,2.50
2023-01-26T13:58:17.090Z,2.50
2023-01-26T14:01:00.231Z,2.60
2023-01-26T14:03:30.505Z,2.60
2023-01-26T14:06:03.401Z,2.60
2023-01-26T14:08:34.970Z,2.60
2023-01-26T14:11:06.527Z,2.60
2023-01-26T14:13:38.819Z,2.70
2023-01-26T14:16:09.238Z,2.60
2023-01-26T14:18:38.160Z,2.60
2023-01-26T14:21:18.300Z,2.60
2023-01-26T14:23:47.195Z,2.60
2023-01-26T14:26:21.953Z,2.60
2023-01-26T14:28:52.942Z,2.60
2023-01-26T14:31:25.184Z,2.50
2023-01-26T14:33:57.922Z,2.50
2023-01-26T14:36:28.681Z,2.50
2023-01-26T14:39:01.321Z,2.50
2023-01-26T14:41:34.008Z,2.50
2023-01-26T14:44:06.244Z,2.50
2023-01-26T14:46:58.507Z,2.40
2023-01-26T14:49:42.975Z,2.50
2023-01-26T14:52:24.329Z,2.40
2023-01-26T14:54:54.902Z,2.40
2023-01-26T14:57:26.822Z,2.40
2023-01-26T14:59:59.489Z,2.30
2023-01-26T15:02:37.326Z,2.40
2023-01-26T15:05:13.291Z,2.40
2023-01-26T15:07:45.383Z,2.40
2023-01-26T15:10:37.181Z,2.40
2023-01-26T15:13:20.838Z,2.40
2023-01-26T15:16:04.678Z,2.20
2023-01-26T15:18:34.665Z,2.20
2023-01-26T15:21:14.164Z,2.20
2023-01-26T15:23:45.563Z,2.30
2023-01-26T15:26:17.409Z,2.30
2023-01-26T15:28:51.815Z,2.30
2023-01-26T15:31:26.869Z,2.20
2023-01-26T15:33:59.017Z,2.30
2023-01-26T15:36:33.733Z,2.30
2023-01-26T15:39:06.522Z,2.30
2023-01-26T15:41:35.450Z,2.30
2023-01-26T15:44:04.388Z,2.20
2023-01-26T15:46:35.219Z,2.30
2023-01-26T15:49:04.468Z,2.20
2023-01-26T15:51:33.410Z,2.20
2023-01-26T15:54:02.415Z,2.20
2023-01-26T15:56:31.370Z,2.20
2023-01-26T15:59:00.475Z,2.20
2023-01-26T16:01:35.203Z,2.20
2023-01-26T16:04:04.716Z,2.30
2023-01-26T16:06:34.993Z,2.30
2023-01-26T16:09:04.015Z,2.30
2023-01-26T16:11:36.735Z,2.30
2023-01-26T16:14:05.892Z,2.20
2023-01-26T16:16:37.047Z,2.30
2023-01-26T16:19:05.997Z,2.30
2023-01-26T16:21:38.772Z,2.30
2023-01-26T16:24:11.366Z,2.40
2023-01-26T16:26:40.696Z,2.30
2023-01-26T16:29:09.717Z,2.40
2023-01-26T16:31:41.808Z,2.30
2023-01-26T16:34:11.850Z,2.20
2023-01-26T16:36:41.077Z,2.30
2023-01-26T16:39:09.985Z,2.30
2023-01-26T16:41:39.002Z,2.30
2023-01-26T16:44:14.472Z,2.40
2023-01-26T16:46:45.907Z,2.30
2023-01-26T16:49:16.036Z,2.30
2023-01-26T16:51:45.748Z,2.30
2023-01-26T16:54:15.480Z,2.20
2023-01-26T16:56:45.540Z,2.30
2023-01-26T16:59:15.007Z,2.40
2023-01-26T17:01:47.577Z,2.30
2023-01-26T17:04:17.531Z,2.30
2023-01-26T17:06:46.730Z,2.30
2023-01-26T17:09:16.569Z,2.40
2023-01-26T17:11:45.703Z,2.40
2023-01-26T17:14:14.951Z,2.50
2023-01-26T17:16:45.382Z,2.50
2023-01-26T17:19:16.068Z,2.50
2023-01-26T17:21:46.341Z,2.40
2023-01-26T17:24:15.445Z,2.40
2023-01-26T17:26:49.136Z,2.40
2023-01-26T17:29:19.182Z,2.30
2023-01-26T17:31:50.009Z,2.40
2023-01-26T17:34:21.468Z,2.20
2023-01-26T17:36:51.330Z,2.20
2023-01-26T17:39:20.352Z,2.30
2023-01-26T17:41:49.388Z,2.40
2023-01-26T17:44:18.926Z,2.30
2023-01-26T17:46:50.519Z,2.40
2023-01-26T17:49:21.700Z,2.30
2023-01-26T17:51:51.003Z,2.40
2023-01-26T17:54:20.117Z,2.30
2023-01-26T17:56:49.941Z,2.30
2023-01-26T17:59:20.011Z,2.30
2023-01-26T18:01:52.433Z,2.30
2023-01-26T18:04:22.626Z,2.40
2023-01-26T18:06:51.587Z,2.50
2023-01-26T18:09:22.240Z,2.50
2023-01-26T18:11:52.391Z,2.50
2023-01-26T18:14:22.261Z,2.40
2023-01-26T18:16:57.985Z,2.50
2023-01-26T18:19:29.619Z,2.60
2023-01-26T18:22:00.169Z,2.60
2023-01-26T18:24:29.640Z,2.60
2023-01-26T18:26:59.003Z,2.50
2023-01-26T18:29:28.765Z,2.40
2023-01-26T18:31:59.798Z,2.30
2023-01-26T18:34:30.523Z,2.40
2023-01-26T18:37:00.048Z,2.30
2023-01-26T18:39:31.444Z,2.40
2023-01-26T18:42:01.007Z,2.20
2023-01-26T18:44:30.199Z,2.20
2023-01-26T18:47:08.397Z,2.20
2023-01-26T18:49:39.925Z,2.30
2023-01-26T18:52:11.429Z,2.40
2023-01-26T18:54:41.457Z,2.30
2023-01-26T18:57:10.824Z,2.40
2023-01-26T18:59:49.994Z,2.40
2023-01-26T19:02:21.995Z,2.40
2023-01-26T19:04:56.611Z,2.40
2023-01-26T19:07:28.908Z,2.40
2023-01-26T19:09:59.236Z,2.40
2023-01-26T19:12:29.827Z,2.40
2023-01-26T19:15:03.889Z,2.40
2023-01-26T19:17:37.152Z,2.30
2023-01-26T19:20:09.064Z,2.20
2023-01-26T19:22:39.843Z,2.30
2023-01-26T19:25:11.531Z,2.10
2023-01-26T19:27:43.592Z,2.20
2023-01-26T19:30:16.664Z,2.20
2023-01-26T19:33:06.831Z,2.20
2023-01-26T19:35:39.569Z,2.30
2023-01-26T19:38:09.945Z,2.40
2023-01-26T19:40:39.647Z,2.40
2023-01-26T19:43:10.247Z,2.50
2023-01-26T19:45:42.169Z,2.40
2023-01-26T19:48:14.063Z,2.40
2023-01-26T19:50:44.278Z,2.40
2023-01-26T19:53:14.313Z,2.30
2023-01-26T19:55:44.743Z,2.30
2023-01-26T19:58:16.558Z,2.40
2023-01-26T20:00:46.671Z,2.40
2023-01-26T20:03:22.917Z,2.40
2023-01-26T20:05:52.990Z,2.40
2023-01-26T20:08:24.929Z,2.40
2023-01-26T20:10:55.408Z,2.40
2023-01-26T20:13:25.483Z,2.40
2023-01-26T20:16:00.463Z,2.40
2023-01-26T20:18:33.032Z,2.40
2023-01-26T20:21:03.511Z,2.40
2023-01-26T20:23:35.151Z,2.30
2023-01-26T20:26:07.298Z,2.30
2023-01-26T20:28:38.617Z,2.30
2023-01-26T20:31:14.443Z,2.20
2023-01-26T20:33:48.438Z,2.20
2023-01-26T20:36:21.268Z,2.20
2023-01-26T20:38:51.603Z,2.30
2023-01-26T20:41:25.478Z,2.30
2023-01-26T20:44:00.480Z,2.30
2023-01-26T20:46:32.265Z,2.30
2023-01-26T20:49:09.177Z,2.20
2023-01-26T20:51:43.124Z,2.20
2023-01-26T20:54:14.619Z,2.20
2023-01-26T20:56:46.456Z,2.20
2023-01-26T20:59:16.423Z,2.10
2023-01-26T21:01:46.337Z,2.10
2023-01-26T21:04:17.785Z,2.20
2023-01-26T21:06:48.196Z,2.20
2023-01-26T21:09:18.024Z,2.20
2023-01-26T21:11:47.745Z,2.10
2023-01-26T21:14:17.316Z,2.10
2023-01-26T21:16:46.299Z,2.10
2023-01-26T21:19:17.099Z,2.10
2023-01-26T21:21:48.876Z,1.90
2023-01-26T21:24:19.187Z,1.90
2023-01-26T21:26:48.656Z,2.00
2023-01-26T21:29:18.152Z,2.00
2023-01-26T21:31:49.668Z,1.90
2023-01-26T21:34:20.418Z,1.80
2023-01-26T21:36:50.033Z,1.90
2023-01-26T21:39:22.003Z,1.90
2023-01-26T21:42:01.560Z,1.90
2023-01-26T21:44:32.114Z,1.90
2023-01-26T21:47:03.302Z,1.80
2023-01-26T21:49:34.034Z,1.90
2023-01-26T21:52:20.590Z,1.80
2023-01-26T21:54:50.062Z,1.80
2023-01-26T21:57:36.144Z,1.80
2023-01-26T22:00:05.473Z,1.90
2023-01-26T22:02:34.453Z,1.90
2023-01-26T22:05:04.876Z,1.90
2023-01-26T22:07:33.834Z,1.90
2023-01-26T22:10:02.776Z,1.80
2023-01-26T22:12:31.658Z,1.80
2023-01-26T22:15:00.767Z,1.80
2023-01-26T22:17:29.716Z,1.80
2023-01-26T22:19:59.906Z,1.80
2023-01-26T22:22:30.224Z,1.80
2023-01-26T22:25:00.017Z,1.80
2023-01-26T22:27:29.385Z,1.70
2023-01-26T22:29:58.508Z,1.70
2023-01-26T22:32:27.903Z,1.70
2023-01-26T22:34:56.925Z,1.70
2023-01-26T22:37:26.057Z,1.70
2023-01-26T22:39:56.576Z,1.80
2023-01-26T22:42:25.551Z,1.80
2023-01-26T22:44:54.675Z,1.80
2023-01-26T22:47:23.563Z,1.70
2023-01-26T22:49:52.715Z,1.80
2023-01-26T22:52:21.692Z,1.80
2023-01-26T22:54:50.666Z,1.80
2023-01-26T22:57:21.084Z,1.80
2023-01-26T22:59:50.090Z,1.80
2023-01-26T23:02:19.079Z,1.80
2023-01-26T23:04:48.059Z,1.80
2023-01-26T23:07:17.025Z,1.80
2023-01-26T23:09:46.040Z,1.90
2023-01-26T23:12:14.932Z,1.90
2023-01-26T23:14:45.351Z,1.90
2023-01-26T23:17:14.259Z,1.90
2023-01-26T23:19:43.174Z,1.90
2023-01-26T23:22:12.196Z,1.90
2023-01-26T23:25:01.219Z,2.00
2023-01-26T23:27:30.104Z,2.00
2023-01-26T23:30:03.082Z,2.00
2023-01-26T23:32:32.454Z,1.90
2023-01-26T23:35:01.762Z,1.90
2023-01-26T23:37:30.721Z,1.80
2023-01-26T23:39:59.628Z,1.80
2023-01-26T23:42:28.573Z,1.70
2023-01-26T23:44:57.479Z,1.70
2023-01-26T23:47:28.102Z,1.70
2023-01-26T23:49:57.099Z,1.70
2023-01-26T23:52:26.158Z,1.60
2023-01-26T23:54:55.147Z,1.60
2023-01-26T23:57:24.158Z,1.70
2023-01-26T23:59:53.170Z,1.70
